Time;durP1;ratioP1;P1;durP2;ratioP2;P2;SDS_P1;SDS_P2;PMS_P1;PMS_P2;Temp;Humidity;BMP_temperature;BMP_pressure;BME280_temperature;BME280_humidity;BME280_pressure;Samples;Min_cycle;Max_cycle;Signal;HPM_P1;HPM_P2
2022/02/26 00:01:30;;;;;;;27.88;8.50;;;;;;;;;;5022434;28;20124;-83
2022/02/26 00:03:58;;;;;;;28.10;8.38;;;;;;;;;;5021869;28;20511;-83
2022/02/26 00:06:24;;;;;;;31.65;8.90;;;;;;;;;;5021121;28;20088;-83
2022/02/26 00:08:51;;;;;;;24.80;8.32;;;;;;;;;;5022372;28;20173;-82
2022/02/26 00:11:17;;;;;;;23.92;8.82;;;;;;;;;;5025620;28;20049;-79
2022/02/26 00:13:44;;;;;;;24.13;8.93;;;;;;;;;;5033201;28;20161;-81
2022/02/26 00:16:10;;;;;;;31.35;9.68;;;;;;;;;;5026208;28;20099;-81
2022/02/26 00:18:37;;;;;;;36.67;10.30;;;;;;;;;;5024581;28;20072;-83
2022/02/26 00:21:04;;;;;;;27.55;9.18;;;;;;;;;;5023806;28;20129;-83
2022/02/26 00:23:31;;;;;;;25.58;10.45;;;;;;;;;;5025553;28;20109;-83
2022/02/26 00:25:58;;;;;;;30.42;10.43;;;;;;;;;;5023314;28;20443;-83
2022/02/26 00:28:24;;;;;;;28.95;11.30;;;;;;;;;;5023263;28;20491;-83
2022/02/26 00:30:50;;;;;;;27.10;10.40;;;;;;;;;;5023478;28;20054;-83
2022/02/26 00:33:17;;;;;;;36.35;12.70;;;;;;;;;;5023053;28;20084;-82
2022/02/26 00:35:43;;;;;;;35.85;12.70;;;;;;;;;;5023493;28;20120;-82
2022/02/26 00:38:11;;;;;;;27.98;11.80;;;;;;;;;;5022047;28;20045;-81
2022/02/26 00:40:38;;;;;;;33.13;13.30;;;;;;;;;;5022390;28;20138;-81
2022/02/26 00:43:04;;;;;;;46.25;12.68;;;;;;;;;;5022198;28;20120;-81
2022/02/26 00:45:31;;;;;;;37.85;13.68;;;;;;;;;;5022961;28;20492;-81
2022/02/26 00:47:57;;;;;;;33.95;12.90;;;;;;;;;;5021655;28;20069;-81
2022/02/26 00:50:23;;;;;;;35.17;12.23;;;;;;;;;;5020998;28;20158;-82
2022/02/26 00:52:49;;;;;;;32.90;12.93;;;;;;;;;;5020091;28;20046;-81
2022/02/26 00:55:20;;;;;;;30.65;11.27;;;;;;;;;;5019437;28;20464;-81
2022/02/26 00:57:46;;;;;;;35.55;11.98;;;;;;;;;;5019142;28;20046;-82
2022/02/26 01:00:13;;;;;;;32.20;11.13;;;;;;;;;;5019461;28;20111;-82
2022/02/26 01:02:39;;;;;;;32.95;10.77;;;;;;;;;;5018204;28;20054;-82
2022/02/26 01:05:06;;;;;;;27.98;10.50;;;;;;;;;;5032610;22;20057;-80
2022/02/26 01:07:33;;;;;;;31.67;9.05;;;;;;;;;;5018004;28;20097;-80
2022/02/26 01:09:59;;;;;;;24.35;9.35;;;;;;;;;;5018411;28;20104;-81
2022/02/26 01:12:27;;;;;;;24.85;8.95;;;;;;;;;;5018181;28;20563;-79
2022/02/26 01:14:53;;;;;;;27.80;9.05;;;;;;;;;;5018223;28;20054;-81
2022/02/26 01:17:20;;;;;;;35.33;10.45;;;;;;;;;;5019163;28;20145;-81
2022/02/26 01:19:48;;;;;;;26.05;10.35;;;;;;;;;;5018036;28;20046;-80
2022/02/26 01:22:14;;;;;;;32.38;11.00;;;;;;;;;;5020055;28;20054;-80
2022/02/26 01:24:41;;;;;;;28.08;9.93;;;;;;;;;;5019540;28;20114;-79
2022/02/26 01:27:08;;;;;;;30.27;10.27;;;;;;;;;;5020578;28;20134;-82
2022/02/26 01:29:36;;;;;;;28.52;11.32;;;;;;;;;;5020776;28;20065;-81
2022/02/26 01:32:02;;;;;;;33.85;11.65;;;;;;;;;;5024657;28;20061;-81
2022/02/26 01:34:28;;;;;;;34.13;12.00;;;;;;;;;;5023483;28;20132;-81
2022/02/26 01:36:55;;;;;;;32.00;11.73;;;;;;;;;;5023086;28;20138;-81
2022/02/26 01:39:24;;;;;;;32.88;13.55;;;;;;;;;;5022837;28;20479;-82
2022/02/26 01:41:51;;;;;;;31.13;12.52;;;;;;;;;;5023731;28;20050;-81
2022/02/26 01:44:17;;;;;;;34.95;12.93;;;;;;;;;;5023647;28;20144;-81
2022/02/26 01:46:45;;;;;;;39.55;14.52;;;;;;;;;;5023095;28;20069;-81
2022/02/26 01:49:11;;;;;;;31.23;13.23;;;;;;;;;;5022016;28;20085;-82
2022/02/26 01:51:38;;;;;;;36.75;13.07;;;;;;;;;;5022269;28;20054;-82
2022/02/26 01:54:04;;;;;;;38.72;14.45;;;;;;;;;;5023534;28;20081;-82
2022/02/26 01:56:32;;;;;;;37.25;14.15;;;;;;;;;;5026831;28;20105;-80
2022/02/26 01:58:58;;;;;;;36.58;14.10;;;;;;;;;;5022305;28;20121;-82
2022/02/26 02:01:25;;;;;;;31.88;13.90;;;;;;;;;;5022138;28;20063;-81
2022/02/26 02:03:52;;;;;;;35.55;14.23;;;;;;;;;;5022158;28;20073;-82
2022/02/26 02:06:19;;;;;;;44.45;14.60;;;;;;;;;;5021666;28;20129;-81
2022/02/26 02:08:46;;;;;;;39.75;13.27;;;;;;;;;;5021680;28;20133;-81
2022/02/26 02:11:12;;;;;;;34.53;13.82;;;;;;;;;;5022132;28;20073;-82
2022/02/26 02:13:39;;;;;;;34.50;12.57;;;;;;;;;;5022679;28;20111;-82
2022/02/26 02:16:05;;;;;;;40.97;13.45;;;;;;;;;;5022366;28;20114;-82
2022/02/26 02:18:32;;;;;;;37.78;12.57;;;;;;;;;;5020982;28;20085;-81
2022/02/26 02:21:00;;;;;;;36.35;11.90;;;;;;;;;;5010553;28;20129;-81
2022/02/26 02:23:27;;;;;;;32.30;11.93;;;;;;;;;;5000220;28;20050;-79
2022/02/26 02:25:54;;;;;;;33.80;11.65;;;;;;;;;;5001199;28;20054;-82
2022/02/26 02:28:21;;;;;;;31.23;12.30;;;;;;;;;;5002228;28;20050;-81
2022/02/26 02:30:48;;;;;;;26.13;11.23;;;;;;;;;;5002040;28;20065;-81
2022/02/26 02:33:14;;;;;;;23.77;11.63;;;;;;;;;;5001395;28;20137;-79
2022/02/26 02:35:42;;;;;;;29.13;11.70;;;;;;;;;;5000875;28;20149;-80
2022/02/26 02:38:10;;;;;;;31.77;11.90;;;;;;;;;;5000640;28;20767;-80
2022/02/26 02:40:38;;;;;;;34.70;13.68;;;;;;;;;;4999753;28;20042;-81
2022/02/26 02:43:05;;;;;;;37.45;13.07;;;;;;;;;;5000748;28;20142;-80
2022/02/26 02:45:32;;;;;;;34.00;13.27;;;;;;;;;;4999748;28;20081;-81
2022/02/26 02:47:58;;;;;;;34.60;13.48;;;;;;;;;;4999144;28;20085;-79
2022/02/26 02:50:25;;;;;;;35.10;14.23;;;;;;;;;;5001059;28;20089;-81
2022/02/26 02:52:51;;;;;;;39.63;15.27;;;;;;;;;;5001009;28;20133;-80
2022/02/26 02:55:20;;;;;;;32.47;14.00;;;;;;;;;;5000248;28;20105;-80
2022/02/26 02:57:48;;;;;;;39.03;13.70;;;;;;;;;;4999006;28;20053;-80
2022/02/26 03:00:15;;;;;;;33.00;13.95;;;;;;;;;;5000266;28;20054;-82
2022/02/26 03:02:42;;;;;;;35.75;13.73;;;;;;;;;;5000590;28;20129;-80
2022/02/26 03:05:08;;;;;;;42.53;14.70;;;;;;;;;;5000819;28;20145;-82
2022/02/26 03:07:35;;;;;;;38.85;15.57;;;;;;;;;;5002974;28;20069;-81
2022/02/26 03:10:01;;;;;;;37.60;15.80;;;;;;;;;;5001553;28;20130;-81
2022/02/26 03:12:28;;;;;;;37.45;16.20;;;;;;;;;;5002019;28;20050;-81
2022/02/26 03:14:58;;;;;;;44.38;16.95;;;;;;;;;;5001272;28;20092;-82
2022/02/26 03:17:25;;;;;;;50.03;19.40;;;;;;;;;;5003479;28;20085;-81
2022/02/26 03:19:52;;;;;;;51.33;19.95;;;;;;;;;;5002496;28;20074;-81
2022/02/26 03:22:18;;;;;;;53.60;20.85;;;;;;;;;;5002560;28;20061;-81
2022/02/26 03:24:45;;;;;;;49.60;23.00;;;;;;;;;;5001173;28;20133;-81
2022/02/26 03:27:11;;;;;;;53.10;23.55;;;;;;;;;;5000587;28;20538;-80
2022/02/26 03:29:38;;;;;;;48.92;24.15;;;;;;;;;;5001063;28;20056;-81
2022/02/26 03:32:06;;;;;;;63.63;24.40;;;;;;;;;;5000971;28;20137;-80
2022/02/26 03:34:33;;;;;;;49.53;23.33;;;;;;;;;;5000515;28;20050;-80
2022/02/26 03:36:59;;;;;;;56.22;22.63;;;;;;;;;;5000146;28;20073;-80
2022/02/26 03:39:31;;;;;;;50.53;21.80;;;;;;;;;;5000146;28;20121;-80
2022/02/26 03:41:57;;;;;;;51.80;21.67;;;;;;;;;;5000140;28;20058;-81
2022/02/26 03:44:24;;;;;;;42.83;20.25;;;;;;;;;;5001527;28;20500;-80
2022/02/26 03:46:50;;;;;;;47.53;20.40;;;;;;;;;;5000075;28;20473;-80
2022/02/26 03:49:18;;;;;;;50.50;19.92;;;;;;;;;;5000467;28;20125;-79
2022/02/26 03:51:45;;;;;;;49.42;21.83;;;;;;;;;;4999076;28;20050;-82
2022/02/26 03:54:11;;;;;;;48.42;21.17;;;;;;;;;;4999077;28;20153;-80
2022/02/26 03:56:37;;;;;;;47.35;20.75;;;;;;;;;;4998484;28;20110;-78
2022/02/26 03:59:04;;;;;;;45.22;20.27;;;;;;;;;;4998798;28;20511;-81
2022/02/26 04:01:30;;;;;;;54.38;21.20;;;;;;;;;;4999634;28;20114;-81
2022/02/26 04:03:57;;;;;;;45.10;20.85;;;;;;;;;;5000264;28;20082;-81
2022/02/26 04:06:24;;;;;;;46.75;20.98;;;;;;;;;;4999595;28;20086;-80
2022/02/26 04:08:51;;;;;;;51.95;19.95;;;;;;;;;;4999204;28;20081;-81
2022/02/26 04:11:17;;;;;;;47.15;19.92;;;;;;;;;;4997971;28;20498;-81
2022/02/26 04:13:44;;;;;;;47.67;22.48;;;;;;;;;;4999308;28;20085;-80
2022/02/26 04:16:10;;;;;;;53.50;22.92;;;;;;;;;;4998805;28;20081;-80
2022/02/26 04:18:36;;;;;;;51.00;21.35;;;;;;;;;;4998941;28;20500;-82
2022/02/26 04:21:03;;;;;;;42.35;20.10;;;;;;;;;;4999167;28;20050;-81
2022/02/26 04:23:31;;;;;;;40.33;20.50;;;;;;;;;;4999261;28;20101;-81
2022/02/26 04:25:57;;;;;;;55.15;20.02;;;;;;;;;;4999660;28;20110;-80
2022/02/26 04:28:23;;;;;;;45.55;20.85;;;;;;;;;;4998187;28;20046;-80
2022/02/26 04:30:51;;;;;;;52.72;21.63;;;;;;;;;;4999236;28;20141;-80
2022/02/26 04:33:17;;;;;;;52.05;20.50;;;;;;;;;;4999014;28;20057;-80
2022/02/26 04:35:44;;;;;;;59.30;23.30;;;;;;;;;;4999084;28;20046;-79
2022/02/26 04:38:10;;;;;;;49.10;21.80;;;;;;;;;;4997291;28;20050;-81
2022/02/26 04:40:38;;;;;;;48.50;22.60;;;;;;;;;;4998448;28;20118;-81
2022/02/26 04:43:04;;;;;;;46.50;22.27;;;;;;;;;;4999510;28;20153;-82
2022/02/26 04:45:31;;;;;;;48.97;23.02;;;;;;;;;;4999436;28;20587;-81
2022/02/26 04:47:57;;;;;;;48.38;22.50;;;;;;;;;;4999565;28;20571;-81
2022/02/26 04:50:24;;;;;;;59.05;21.73;;;;;;;;;;4999934;28;20129;-81
2022/02/26 04:52:50;;;;;;;46.30;22.50;;;;;;;;;;5000248;28;20116;-81
2022/02/26 04:55:16;;;;;;;47.08;22.08;;;;;;;;;;5000733;28;20401;-81
2022/02/26 04:57:45;;;;;;;58.83;23.58;;;;;;;;;;5013913;28;20042;-81
2022/02/26 05:00:12;;;;;;;62.83;23.35;;;;;;;;;;5016611;28;20074;-82
2022/02/26 05:02:39;;;;;;;56.42;23.48;;;;;;;;;;5017686;28;20037;-81
2022/02/26 05:05:05;;;;;;;48.83;23.80;;;;;;;;;;5011920;28;20046;-83
2022/02/26 05:07:32;;;;;;;52.65;25.10;;;;;;;;;;5000372;28;20070;-82
2022/02/26 05:09:58;;;;;;;69.20;25.58;;;;;;;;;;4998570;28;20082;-81
2022/02/26 05:12:24;;;;;;;60.60;25.65;;;;;;;;;;4999269;28;20094;-82
2022/02/26 05:14:54;;;;;;;58.97;25.90;;;;;;;;;;4999030;28;20145;-80
2022/02/26 05:17:20;;;;;;;59.78;26.85;;;;;;;;;;4998194;28;20050;-81
2022/02/26 05:19:47;;;;;;;60.25;25.20;;;;;;;;;;4998525;28;20050;-81
2022/02/26 05:22:13;;;;;;;56.13;26.02;;;;;;;;;;4999675;28;20050;-80
2022/02/26 05:24:39;;;;;;;57.28;25.65;;;;;;;;;;4999113;28;20096;-82
2022/02/26 05:27:06;;;;;;;61.45;27.02;;;;;;;;;;4999213;28;20578;-82
2022/02/26 05:29:32;;;;;;;57.88;28.10;;;;;;;;;;4998285;28;20085;-81
2022/02/26 05:32:00;;;;;;;56.63;26.85;;;;;;;;;;4998857;28;20092;-81
2022/02/26 05:34:26;;;;;;;56.72;26.60;;;;;;;;;;5000028;28;20129;-83
2022/02/26 05:36:53;;;;;;;59.85;25.58;;;;;;;;;;5000193;28;20154;-83
2022/02/26 05:39:19;;;;;;;55.97;26.40;;;;;;;;;;5000518;28;20106;-83
2022/02/26 05:41:46;;;;;;;55.63;24.38;;;;;;;;;;5000997;28;20057;-82
2022/02/26 05:44:12;;;;;;;55.85;25.17;;;;;;;;;;5000239;28;20081;-83
2022/02/26 05:46:39;;;;;;;51.03;23.73;;;;;;;;;;4999574;28;20137;-83
2022/02/26 05:49:06;;;;;;;60.35;25.48;;;;;;;;;;4999833;28;20096;-83
2022/02/26 05:51:33;;;;;;;56.60;25.50;;;;;;;;;;5009379;28;20050;-83
2022/02/26 05:53:59;;;;;;;55.08;25.38;;;;;;;;;;5015541;28;20081;-83
2022/02/26 05:56:26;;;;;;;50.95;25.80;;;;;;;;;;5015470;28;20066;-82
2022/02/26 05:58:52;;;;;;;51.13;24.92;;;;;;;;;;5014414;28;20060;-82
2022/02/26 06:01:18;;;;;;;48.30;24.35;;;;;;;;;;5014211;28;20109;-83
2022/02/26 06:03:45;;;;;;;52.63;24.65;;;;;;;;;;5017586;28;20064;-83
2022/02/26 06:06:13;;;;;;;58.08;24.77;;;;;;;;;;5021123;28;20129;-84
2022/02/26 06:08:39;;;;;;;55.05;26.00;;;;;;;;;;5020325;28;20050;-83
2022/02/26 06:11:05;;;;;;;66.55;26.73;;;;;;;;;;5020873;28;20073;-83
2022/02/26 06:13:32;;;;;;;48.50;25.40;;;;;;;;;;5020789;28;20053;-84
2022/02/26 06:15:58;;;;;;;51.83;25.83;;;;;;;;;;5022031;28;20057;-83
2022/02/26 06:18:25;;;;;;;47.42;24.63;;;;;;;;;;5025083;28;20050;-84
2022/02/26 06:20:52;;;;;;;57.08;26.50;;;;;;;;;;5025381;28;20050;-84
2022/02/26 06:23:21;;;;;;;54.17;24.65;;;;;;;;;;5005954;28;20137;-83
2022/02/26 06:25:48;;;;;;;59.20;25.95;;;;;;;;;;5019997;28;20050;-84
2022/02/26 06:28:14;;;;;;;50.53;25.63;;;;;;;;;;5027922;28;20046;-82
2022/02/26 06:30:41;;;;;;;51.33;25.73;;;;;;;;;;5026399;28;20122;-83
2022/02/26 06:33:12;;;;;;;54.25;25.33;;;;;;;;;;5024058;28;20045;-83
2022/02/26 06:35:38;;;;;;;55.22;25.15;;;;;;;;;;4993980;28;20078;-80
2022/02/26 06:39:30;;;;;;;50.78;24.10;;;;;;;;;;5111776;27;1445698;-82
2022/02/26 06:41:56;;;;;;;56.58;24.35;;;;;;;;;;5128840;28;20111;-83
2022/02/26 06:44:23;;;;;;;50.22;24.88;;;;;;;;;;5138330;28;20157;-82
2022/02/26 06:46:50;;;;;;;53.30;26.23;;;;;;;;;;5140172;28;20043;-83
2022/02/26 06:49:16;;;;;;;60.63;25.27;;;;;;;;;;5085576;28;20048;-83
2022/02/26 06:51:43;;;;;;;59.60;26.05;;;;;;;;;;5077113;28;20494;-82
2022/02/26 06:54:09;;;;;;;52.70;25.33;;;;;;;;;;5076254;28;20112;-82
2022/02/26 06:56:37;;;;;;;61.33;27.02;;;;;;;;;;5076367;28;20112;-81
2022/02/26 06:59:03;;;;;;;60.30;26.35;;;;;;;;;;5076423;28;20044;-81
2022/02/26 07:01:30;;;;;;;56.42;24.70;;;;;;;;;;5076114;28;20645;-82
2022/02/26 07:03:56;;;;;;;56.90;24.98;;;;;;;;;;5087858;22;20052;-80
2022/02/26 07:06:23;;;;;;;46.80;23.70;;;;;;;;;;5016749;28;20082;-80
2022/02/26 07:08:49;;;;;;;69.55;32.38;;;;;;;;;;5011608;28;20046;-83
2022/02/26 07:11:15;;;;;;;53.05;25.85;;;;;;;;;;5011907;28;20104;-82
2022/02/26 07:13:43;;;;;;;53.55;25.23;;;;;;;;;;5014690;28;20126;-82
2022/02/26 07:16:10;;;;;;;52.10;25.38;;;;;;;;;;5014357;28;20134;-81
2022/02/26 07:18:36;;;;;;;53.05;24.35;;;;;;;;;;5014176;28;20050;-82
2022/02/26 07:21:03;;;;;;;62.08;25.77;;;;;;;;;;5017759;28;20058;-81
2022/02/26 07:23:30;;;;;;;51.97;25.98;;;;;;;;;;5016607;28;20049;-82
2022/02/26 07:25:56;;;;;;;54.95;26.85;;;;;;;;;;5017281;28;20100;-82
2022/02/26 07:28:23;;;;;;;46.40;23.95;;;;;;;;;;5016594;28;20153;-82
2022/02/26 07:30:52;;;;;;;55.38;26.08;;;;;;;;;;5018561;28;20073;-82
2022/02/26 07:33:19;;;;;;;51.85;24.48;;;;;;;;;;5017196;28;20366;-81
2022/02/26 07:35:45;;;;;;;55.05;26.60;;;;;;;;;;5017248;28;20074;-82
2022/02/26 07:38:12;;;;;;;58.17;24.17;;;;;;;;;;5014649;28;20473;-82
2022/02/26 07:40:41;;;;;;;47.55;24.40;;;;;;;;;;5015531;28;20165;-82
2022/02/26 07:43:07;;;;;;;46.95;22.88;;;;;;;;;;5017894;28;20433;-82
2022/02/26 07:45:34;;;;;;;55.88;24.10;;;;;;;;;;5013986;28;20050;-82
2022/02/26 07:48:02;;;;;;;56.35;27.05;;;;;;;;;;5014449;28;20098;-83
2022/02/26 07:50:28;;;;;;;54.75;25.83;;;;;;;;;;5003285;28;20145;-82
2022/02/26 07:52:54;;;;;;;58.55;26.98;;;;;;;;;;5001209;28;20101;-82
2022/02/26 07:55:21;;;;;;;53.80;24.17;;;;;;;;;;5000862;28;20054;-82
2022/02/26 07:57:47;;;;;;;53.15;24.60;;;;;;;;;;4999689;28;20046;-82
2022/02/26 08:00:14;;;;;;;53.40;23.92;;;;;;;;;;4998468;28;20552;-82
2022/02/26 08:02:40;;;;;;;49.03;24.20;;;;;;;;;;5002839;28;20141;-83
2022/02/26 08:05:09;;;;;;;49.65;23.58;;;;;;;;;;5003643;28;20069;-82
2022/02/26 08:07:35;;;;;;;51.72;22.75;;;;;;;;;;5004963;28;20066;-82
2022/02/26 08:10:02;;;;;;;47.38;21.85;;;;;;;;;;5003946;28;20077;-82
2022/02/26 08:12:29;;;;;;;52.13;21.75;;;;;;;;;;5002379;28;20059;-81
2022/02/26 08:14:55;;;;;;;52.97;22.85;;;;;;;;;;5003582;28;20141;-82
2022/02/26 08:17:22;;;;;;;48.08;23.15;;;;;;;;;;4993383;28;20051;-81
2022/02/26 08:19:48;;;;;;;55.47;23.75;;;;;;;;;;4983640;28;20463;-83
2022/02/26 08:22:16;;;;;;;44.95;22.25;;;;;;;;;;4986421;28;20050;-82
2022/02/26 08:24:42;;;;;;;47.50;21.10;;;;;;;;;;4986909;28;20051;-82
2022/02/26 08:27:09;;;;;;;44.55;21.38;;;;;;;;;;4997929;28;20081;-83
2022/02/26 08:29:35;;;;;;;41.05;23.35;;;;;;;;;;5007361;28;20053;-82
2022/02/26 08:32:01;;;;;;;45.65;21.92;;;;;;;;;;5006049;28;20050;-82
2022/02/26 08:34:28;;;;;;;45.95;23.80;;;;;;;;;;5007519;28;20082;-82
2022/02/26 08:36:54;;;;;;;58.88;25.85;;;;;;;;;;5006829;28;20150;-83
2022/02/26 08:39:24;;;;;;;60.42;24.30;;;;;;;;;;5007311;28;20148;-82
2022/02/26 08:41:50;;;;;;;57.70;25.00;;;;;;;;;;5007280;28;20057;-82
2022/02/26 08:44:16;;;;;;;55.28;24.75;;;;;;;;;;5006882;28;20129;-82
2022/02/26 08:46:43;;;;;;;56.33;24.88;;;;;;;;;;5005646;28;20074;-83
2022/02/26 08:49:09;;;;;;;53.70;24.75;;;;;;;;;;5005919;28;20532;-83
2022/02/26 08:51:36;;;;;;;72.93;30.50;;;;;;;;;;5007405;28;20073;-81
2022/02/26 08:54:02;;;;;;;73.90;30.63;;;;;;;;;;5008059;28;20141;-83
2022/02/26 08:56:30;;;;;;;74.20;31.15;;;;;;;;;;5003666;28;20137;-83
2022/02/26 08:59:00;;;;;;;69.55;31.08;;;;;;;;;;5001286;28;20480;-82
2022/02/26 09:01:26;;;;;;;71.35;30.77;;;;;;;;;;4998917;28;20073;-82
2022/02/26 09:03:52;;;;;;;71.30;30.27;;;;;;;;;;4998674;28;20509;-83
2022/02/26 09:06:19;;;;;;;54.45;26.10;;;;;;;;;;4999732;28;20054;-82
2022/02/26 09:08:45;;;;;;;65.50;27.88;;;;;;;;;;4999359;28;20137;-82
2022/02/26 09:11:12;;;;;;;57.20;24.65;;;;;;;;;;5000242;28;20452;-82
2022/02/26 09:13:42;;;;;;;57.70;26.83;;;;;;;;;;5003632;28;20110;-83
2022/02/26 09:16:12;;;;;;;54.45;26.63;;;;;;;;;;5008179;28;20070;-83
2022/02/26 09:18:39;;;;;;;56.30;26.67;;;;;;;;;;5011621;28;20078;-83
2022/02/26 09:21:06;;;;;;;68.47;27.25;;;;;;;;;;5015018;28;20050;-82
2022/02/26 09:23:33;;;;;;;57.47;27.52;;;;;;;;;;5014893;28;20065;-83
2022/02/26 09:25:59;;;;;;;56.50;23.45;;;;;;;;;;5011615;28;20046;-83
2022/02/26 09:28:26;;;;;;;55.95;25.17;;;;;;;;;;5010184;28;20077;-84
2022/02/26 09:30:53;;;;;;;50.05;23.77;;;;;;;;;;5009686;28;20149;-82
2022/02/26 09:33:20;;;;;;;58.30;26.13;;;;;;;;;;5009498;28;20054;-82
2022/02/26 09:35:47;;;;;;;56.03;25.75;;;;;;;;;;5008840;28;20050;-83
2022/02/26 09:38:13;;;;;;;52.13;24.25;;;;;;;;;;5001660;28;20573;-85
2022/02/26 09:40:40;;;;;;;53.28;23.90;;;;;;;;;;5002694;28;20137;-85
2022/02/26 09:43:06;;;;;;;60.55;25.52;;;;;;;;;;5002380;28;20137;-84
2022/02/26 09:45:33;;;;;;;53.78;25.73;;;;;;;;;;5002043;28;20610;-85
2022/02/26 09:48:00;;;;;;;58.08;23.27;;;;;;;;;;5002397;28;20074;-83
2022/02/26 09:50:27;;;;;;;49.50;24.80;;;;;;;;;;5002956;28;20182;-84
2022/02/26 09:52:53;;;;;;;53.55;24.25;;;;;;;;;;5001118;28;20153;-86
2022/02/26 09:55:20;;;;;;;51.47;23.13;;;;;;;;;;5002377;28;20050;-84
2022/02/26 09:57:46;;;;;;;44.97;21.05;;;;;;;;;;5002477;28;20105;-84
2022/02/26 10:00:15;;;;;;;48.67;20.95;;;;;;;;;;5002013;28;20046;-85
2022/02/26 10:02:48;;;;;;;47.40;22.88;;;;;;;;;;5002404;28;20427;-85
2022/02/26 10:05:18;;;;;;;52.22;22.60;;;;;;;;;;5003178;28;20077;-86
2022/02/26 10:07:46;;;;;;;48.80;22.20;;;;;;;;;;5003257;28;20061;-86
2022/02/26 10:10:15;;;;;;;57.80;24.00;;;;;;;;;;5003059;28;20082;-85
2022/02/26 10:12:42;;;;;;;44.90;21.67;;;;;;;;;;5004059;28;20050;-86
2022/02/26 10:15:22;;;;;;;47.13;21.48;;;;;;;;;;5003713;28;20085;-86
2022/02/26 10:17:57;;;;;;;47.63;20.95;;;;;;;;;;5004582;28;20088;-84
2022/02/26 10:20:26;;;;;;;52.92;22.48;;;;;;;;;;5004394;28;20089;-85
2022/02/26 10:22:53;;;;;;;43.28;20.35;;;;;;;;;;5004463;28;20054;-86
2022/02/26 10:25:22;;;;;;;52.35;21.70;;;;;;;;;;5005418;28;20081;-85
2022/02/26 10:27:48;;;;;;;43.88;22.13;;;;;;;;;;5005213;28;20081;-85
2022/02/26 10:30:16;;;;;;;43.35;19.77;;;;;;;;;;5005043;28;20107;-86
2022/02/26 10:33:02;;;;;;;47.60;20.85;;;;;;;;;;5006489;28;20078;-86
2022/02/26 10:35:35;;;;;;;57.38;26.30;;;;;;;;;;5004267;28;20058;-85
2022/02/26 10:38:12;;;;;;;43.97;19.83;;;;;;;;;;5003837;28;20062;-86
2022/02/26 10:40:57;;;;;;;49.38;21.00;;;;;;;;;;5005710;28;20414;-85
2022/02/26 10:43:39;;;;;;;45.88;20.25;;;;;;;;;;5004874;28;20066;-85
2022/02/26 10:46:16;;;;;;;46.03;21.00;;;;;;;;;;5003733;28;20119;-85
2022/02/26 10:48:43;;;;;;;51.65;21.08;;;;;;;;;;5000196;28;20491;-82
2022/02/26 10:51:15;;;;;;;40.58;21.02;;;;;;;;;;5001016;28;20228;-82
2022/02/26 10:53:42;;;;;;;50.88;20.92;;;;;;;;;;5000145;28;20069;-80
2022/02/26 10:56:10;;;;;;;41.05;17.58;;;;;;;;;;4999628;28;20133;-83
2022/02/26 10:58:36;;;;;;;45.63;17.77;;;;;;;;;;4999349;28;20114;-83
2022/02/26 11:01:04;;;;;;;44.53;17.25;;;;;;;;;;4999186;28;20121;-82
2022/02/26 11:03:30;;;;;;;46.58;19.08;;;;;;;;;;4997384;28;20050;-83
2022/02/26 11:05:57;;;;;;;44.05;19.10;;;;;;;;;;4998504;28;20060;-83
2022/02/26 11:08:25;;;;;;;43.47;17.63;;;;;;;;;;4979978;28;20051;-83
2022/02/26 11:10:52;;;;;;;40.33;17.05;;;;;;;;;;4981871;28;20053;-81
2022/02/26 11:13:20;;;;;;;46.47;16.50;;;;;;;;;;4996323;28;20057;-84
2022/02/26 11:15:48;;;;;;;44.33;17.77;;;;;;;;;;5018308;28;20057;-84
2022/02/26 11:18:18;;;;;;;38.67;17.20;;;;;;;;;;5024497;28;20065;-84
2022/02/26 11:20:44;;;;;;;39.15;16.98;;;;;;;;;;5025708;28;20046;-85
2022/02/26 11:23:10;;;;;;;43.42;18.42;;;;;;;;;;5023598;28;20118;-84
2022/02/26 11:25:38;;;;;;;44.90;18.00;;;;;;;;;;5007672;28;20065;-84
2022/02/26 11:28:05;;;;;;;43.92;18.60;;;;;;;;;;5010317;28;20397;-84
2022/02/26 11:30:34;;;;;;;38.40;17.20;;;;;;;;;;5011573;28;20385;-85
2022/02/26 11:33:01;;;;;;;39.70;16.88;;;;;;;;;;5012082;28;20073;-82
2022/02/26 11:35:28;;;;;;;38.05;16.73;;;;;;;;;;5012867;28;20074;-83
2022/02/26 11:37:56;;;;;;;42.17;17.70;;;;;;;;;;5011763;28;20077;-81
2022/02/26 11:40:23;;;;;;;42.65;19.40;;;;;;;;;;5014048;28;20102;-83
2022/02/26 11:42:54;;;;;;;38.80;17.40;;;;;;;;;;5013515;28;20062;-84
2022/02/26 11:45:21;;;;;;;52.50;18.95;;;;;;;;;;5010949;28;20046;-82
2022/02/26 11:47:52;;;;;;;46.55;18.67;;;;;;;;;;5013632;28;20051;-80
2022/02/26 11:50:21;;;;;;;47.42;18.30;;;;;;;;;;5010070;28;20057;-84
2022/02/26 11:52:48;;;;;;;48.50;17.50;;;;;;;;;;4991434;28;20085;-84
2022/02/26 11:55:35;;;;;;;42.08;17.48;;;;;;;;;;4989232;28;20054;-85
2022/02/26 11:58:05;;;;;;;43.50;16.90;;;;;;;;;;4995606;28;20059;-84
2022/02/26 12:00:32;;;;;;;42.53;16.15;;;;;;;;;;4993510;28;20058;-84
2022/02/26 12:03:18;;;;;;;38.08;15.40;;;;;;;;;;4989505;28;20086;-84
2022/02/26 12:05:45;;;;;;;35.47;13.35;;;;;;;;;;4986699;28;20059;-84
2022/02/26 12:08:12;;;;;;;35.65;14.00;;;;;;;;;;4993822;28;20054;-79
2022/02/26 12:10:51;;;;;;;32.08;12.38;;;;;;;;;;5007908;28;20046;-82
2022/02/26 12:13:25;;;;;;;27.30;9.35;;;;;;;;;;5021136;28;20125;-83
2022/02/26 12:16:07;;;;;;;26.77;8.43;;;;;;;;;;5007293;28;20199;-83
2022/02/26 12:18:40;;;;;;;25.45;8.75;;;;;;;;;;5006803;28;20054;-84
2022/02/26 12:21:08;;;;;;;30.15;10.13;;;;;;;;;;5006478;28;20104;-84
2022/02/26 12:23:35;;;;;;;26.40;10.90;;;;;;;;;;5007665;28;20577;-83
2022/02/26 12:26:02;;;;;;;23.80;10.10;;;;;;;;;;5013793;28;20114;-83
2022/02/26 12:28:31;;;;;;;28.23;9.50;;;;;;;;;;5003627;28;20062;-83
2022/02/26 12:31:04;;;;;;;23.52;8.95;;;;;;;;;;5005650;28;20046;-82
2022/02/26 12:33:37;;;;;;;29.15;9.30;;;;;;;;;;5006822;28;20105;-81
2022/02/26 12:36:11;;;;;;;31.17;9.90;;;;;;;;;;5008375;28;20050;-82
2022/02/26 12:38:46;;;;;;;22.85;9.85;;;;;;;;;;5007562;28;20058;-82
2022/02/26 12:41:26;;;;;;;20.02;8.50;;;;;;;;;;5005400;28;20042;-82
2022/02/26 12:43:54;;;;;;;30.65;8.70;;;;;;;;;;5004340;28;20113;-82
2022/02/26 12:46:20;;;;;;;24.55;8.60;;;;;;;;;;5004730;28;20077;-82
2022/02/26 12:48:47;;;;;;;23.55;7.75;;;;;;;;;;5002721;28;20054;-82
2022/02/26 12:51:14;;;;;;;20.92;8.05;;;;;;;;;;5005994;28;20084;-82
2022/02/26 12:53:41;;;;;;;20.73;7.60;;;;;;;;;;5007257;28;20106;-83
2022/02/26 12:56:07;;;;;;;21.08;7.75;;;;;;;;;;5008279;28;20109;-82
2022/02/26 12:58:34;;;;;;;21.70;7.90;;;;;;;;;;5008090;28;20572;-82
2022/02/26 13:01:02;;;;;;;18.30;6.63;;;;;;;;;;5007600;28;20046;-82
2022/02/26 13:03:29;;;;;;;23.77;7.07;;;;;;;;;;5002294;28;20084;-82
2022/02/26 13:08:30;;;;;;;20.52;6.95;;;;;;;;;;5026171;28;20049;-81
2022/02/26 13:11:00;;;;;;;20.02;7.30;;;;;;;;;;5001173;28;20052;-81
2022/02/26 13:13:27;;;;;;;19.30;7.47;;;;;;;;;;4999409;28;20531;-81
2022/02/26 13:15:54;;;;;;;19.20;7.55;;;;;;;;;;5013858;28;20053;-81
2022/02/26 13:18:22;;;;;;;20.25;7.30;;;;;;;;;;5018124;28;20046;-81
2022/02/26 13:20:49;;;;;;;21.38;7.78;;;;;;;;;;5020707;28;20053;-82
2022/02/26 13:23:17;;;;;;;18.15;7.07;;;;;;;;;;5020311;28;20053;-81
2022/02/26 13:25:44;;;;;;;15.35;6.57;;;;;;;;;;5019906;28;20400;-80
2022/02/26 13:28:13;;;;;;;18.77;7.50;;;;;;;;;;5037543;28;20079;-82
2022/02/26 13:30:40;;;;;;;20.67;7.57;;;;;;;;;;5040695;28;20500;-82
2022/02/26 13:33:06;;;;;;;19.52;7.45;;;;;;;;;;5040964;28;20114;-82
2022/02/26 13:35:35;;;;;;;20.02;7.63;;;;;;;;;;5039910;28;20049;-82
2022/02/26 13:38:01;;;;;;;19.30;6.95;;;;;;;;;;5039671;28;20076;-81
2022/02/26 13:40:28;;;;;;;20.60;6.80;;;;;;;;;;5039862;28;20485;-80
2022/02/26 13:42:56;;;;;;;18.90;6.85;;;;;;;;;;5039800;28;20423;-81
2022/02/26 13:45:25;;;;;;;17.98;7.22;;;;;;;;;;5028947;28;20118;-81
2022/02/26 13:47:51;;;;;;;16.10;6.20;;;;;;;;;;5020429;28;20053;-81
2022/02/26 13:50:18;;;;;;;17.98;6.82;;;;;;;;;;5020560;28;20073;-81
2022/02/26 13:52:47;;;;;;;20.02;6.75;;;;;;;;;;5022242;28;20117;-81
2022/02/26 13:55:15;;;;;;;14.05;5.80;;;;;;;;;;5020234;28;20130;-81
2022/02/26 13:57:42;;;;;;;14.27;5.70;;;;;;;;;;5019842;28;20049;-81
2022/02/26 14:00:10;;;;;;;18.88;6.57;;;;;;;;;;5020478;28;20050;-82
2022/02/26 14:02:37;;;;;;;20.10;6.15;;;;;;;;;;5041108;28;20053;-82
2022/02/26 14:05:05;;;;;;;21.17;6.30;;;;;;;;;;5041118;28;20122;-82
2022/02/26 14:07:37;;;;;;;22.80;5.72;;;;;;;;;;5039967;28;20064;-82
2022/02/26 14:10:05;;;;;;;17.77;7.72;;;;;;;;;;5040877;28;20056;-82
2022/02/26 14:12:33;;;;;;;19.98;5.80;;;;;;;;;;5042003;28;20076;-81
2022/02/26 14:15:00;;;;;;;12.07;4.97;;;;;;;;;;5044677;28;20113;-82
2022/02/26 14:17:27;;;;;;;21.83;5.88;;;;;;;;;;5055807;28;20048;-82
2022/02/26 14:19:56;;;;;;;18.67;5.57;;;;;;;;;;5056293;28;20057;-81
2022/02/26 14:22:25;;;;;;;12.73;5.00;;;;;;;;;;5063665;28;20044;-82
2022/02/26 14:24:52;;;;;;;15.40;5.85;;;;;;;;;;5043981;28;20103;-82